Time;durP1;ratioP1;P1;durP2;ratioP2;P2;SDS_P1;SDS_P2;PMS_P1;PMS_P2;Temp;Humidity;BMP_temperature;BMP_pressure;BME280_temperature;BME280_humidity;BME280_pressure;Samples;Min_cycle;Max_cycle;Signal;HPM_P1;HPM_P2
2022/06/22 07:32:46;;;;;;;4.07;1.70;;;;;;;25.74;31.56;99313.91;4512488;31;147044;-63
2022/06/22 07:35:22;;;;;;;3.78;1.45;;;;;;;25.74;31.56;99313.91;4504283;31;32270;-61
2022/06/22 07:38:19;;;;;;;3.70;1.20;;;;;;;25.04;31.21;99313.09;4500548;31;33557;-61
2022/06/22 07:44:00;;;;;;;3.78;1.50;;;;;;;25.12;31.85;99315.63;4459056;32;33455;-64
2022/06/22 07:47:08;;;;;;;2.70;1.25;;;;;;;25.45;31.29;99306.34;4471511;32;34386;-61
2022/06/22 07:49:44;;;;;;;3.80;1.45;;;;;;;25.03;33.03;99306.78;4500202;31;33819;-64
2022/06/22 07:52:14;;;;;;;3.55;1.55;;;;;;;24.56;32.29;99311.66;4497881;31;33673;-61
2022/06/22 07:54:43;;;;;;;3.05;1.20;;;;;;;25.26;32.52;99319.94;4506236;31;33515;-62
2022/06/22 07:57:47;;;;;;;4.70;1.60;;;;;;;25.20;32.00;99323.59;4496640;31;33104;-63
2022/06/22 08:00:20;;;;;;;4.28;1.60;;;;;;;25.85;30.91;99314.28;4503557;31;33802;-62
2022/06/22 08:02:47;;;;;;;3.87;1.27;;;;;;;25.87;30.58;99312.97;4510652;31;32679;-65
2022/06/22 08:05:20;;;;;;;2.92;1.02;;;;;;;25.27;31.70;99305.22;4509556;31;34862;-62
2022/06/22 08:07:53;;;;;;;2.17;1.10;;;;;;;25.36;30.47;99297.56;4494485;31;33116;-62
2022/06/22 08:10:26;;;;;;;1.65;1.10;;;;;;;25.60;30.66;99300.56;4490485;31;32305;-65
2022/06/22 08:13:05;;;;;;;1.98;1.08;;;;;;;25.33;29.85;99295.28;4498308;31;34058;-63
2022/06/22 08:15:41;;;;;;;4.40;1.55;;;;;;;25.83;29.43;99283.50;4502487;31;33869;-64
2022/06/22 08:18:09;;;;;;;5.82;1.70;;;;;;;26.22;30.36;99288.59;4505379;31;31902;-63
2022/06/22 08:20:40;;;;;;;3.10;1.10;;;;;;;26.08;30.83;99294.47;4506272;31;34472;-65
2022/06/22 08:23:13;;;;;;;2.42;1.20;;;;;;;25.41;29.75;99303.22;4504235;31;32325;-64
2022/06/22 08:26:05;;;;;;;3.17;1.35;;;;;;;25.78;28.06;99293.22;4500039;31;32603;-62
2022/06/22 08:28:35;;;;;;;2.87;1.27;;;;;;;25.80;29.00;99293.00;4486302;31;33177;-61
2022/06/22 08:31:03;;;;;;;1.87;1.10;;;;;;;26.23;27.28;99289.44;4511134;31;32253;-62
2022/06/22 08:33:38;;;;;;;2.50;1.37;;;;;;;26.39;27.19;99277.87;4502413;31;34935;-64
2022/06/22 08:36:17;;;;;;;6.22;1.42;;;;;;;26.35;28.89;99286.78;4509087;31;34839;-62
2022/06/22 08:38:50;;;;;;;3.50;1.50;;;;;;;26.47;28.69;99284.94;4507682;31;33090;-64
2022/06/22 08:41:26;;;;;;;3.30;1.50;;;;;;;25.52;29.37;99282.47;4499511;31;33927;-63
2022/06/22 08:44:01;;;;;;;2.33;1.10;;;;;;;25.77;28.90;99282.47;4494453;31;32661;-62
2022/06/22 08:46:51;;;;;;;2.37;1.37;;;;;;;26.23;28.21;99282.06;4486913;31;34194;-66
2022/06/22 08:49:31;;;;;;;4.05;1.00;;;;;;;26.12;26.65;99288.28;4498241;31;32085;-60
2022/06/22 08:52:31;;;;;;;2.42;1.00;;;;;;;26.00;26.86;99285.47;4485003;31;34035;-63
2022/06/22 08:55:37;;;;;;;2.53;0.90;;;;;;;26.23;27.74;99278.47;4491894;31;33626;-63
2022/06/22 08:58:27;;;;;;;4.10;1.08;;;;;;;26.41;25.78;99291.34;4492683;31;34647;-62
2022/06/22 09:01:15;;;;;;;3.40;1.10;;;;;;;26.50;26.68;99301.00;4489301;31;33277;-63
2022/06/22 09:04:08;;;;;;;1.08;0.80;;;;;;;26.53;26.42;99291.47;4487401;31;33621;-65
2022/06/22 09:07:13;;;;;;;3.17;1.02;;;;;;;26.38;24.36;99295.38;4498018;31;33747;-62
2022/06/22 09:09:52;;;;;;;2.20;1.10;;;;;;;26.44;25.77;99293.63;4493242;31;33870;-62
2022/06/22 09:12:51;;;;;;;4.25;1.02;;;;;;;26.23;21.96;99289.44;4498430;31;33042;-62
2022/06/22 09:15:53;;;;;;;3.42;1.58;;;;;;;26.35;23.40;99298.56;4487835;31;33636;-65
2022/06/22 09:19:02;;;;;;;1.52;0.82;;;;;;;26.99;23.45;99301.00;4498223;31;34895;-66
2022/06/22 09:21:52;;;;;;;1.60;0.90;;;;;;;26.80;24.80;99295.53;4494071;31;32485;-62
2022/06/22 09:24:21;;;;;;;3.60;1.30;;;;;;;26.85;23.84;99294.84;4495215;31;31808;-61
2022/06/22 09:27:10;;;;;;;2.35;1.00;;;;;;;26.91;24.23;99286.53;4491420;31;32823;-64
2022/06/22 09:30:00;;;;;;;2.37;0.90;;;;;;;27.54;23.27;99289.84;4494582;31;35297;-65
2022/06/22 09:33:05;;;;;;;2.95;1.55;;;;;;;27.85;23.43;99274.97;4495296;31;34013;-65
2022/06/22 09:36:00;;;;;;;2.60;1.23;;;;;;;27.38;24.17;99263.88;4489473;31;31988;-64
2022/06/22 09:38:49;;;;;;;2.53;1.00;;;;;;;27.51;23.84;99271.06;4495170;31;34046;-61
2022/06/22 09:41:48;;;;;;;3.85;1.15;;;;;;;27.23;24.09;99269.00;4490484;31;33975;-62
2022/06/22 09:44:41;;;;;;;4.00;1.45;;;;;;;27.32;24.93;99267.56;4494496;31;33719;-64
2022/06/22 09:47:34;;;;;;;2.10;0.82;;;;;;;28.15;23.97;99276.75;4491340;31;33340;-65
2022/06/22 09:50:33;;;;;;;4.15;1.40;;;;;;;27.91;23.11;99267.69;4484374;31;33368;-64
2022/06/22 09:53:19;;;;;;;2.80;0.90;;;;;;;28.83;21.57;99273.28;4492170;31;33218;-65
2022/06/22 09:59:06;;;;;;;2.62;1.10;;;;;;;28.50;21.04;99266.56;4490064;31;33271;-63
2022/06/22 10:02:06;;;;;;;2.10;1.20;;;;;;;28.75;21.84;99266.25;4484279;31;33569;-63
2022/06/22 10:04:54;;;;;;;4.07;1.10;;;;;;;28.90;21.81;99264.88;4490996;31;34597;-62
2022/06/22 10:07:31;;;;;;;3.25;1.33;;;;;;;28.85;20.47;99264.78;4486732;31;32969;-62
2022/06/22 10:10:19;;;;;;;1.05;0.73;;;;;;;29.39;19.20;99266.09;4491742;31;33282;-63
2022/06/22 10:13:29;;;;;;;1.67;0.88;;;;;;;29.25;19.88;99256.47;4493441;31;33938;-62
2022/06/22 10:16:28;;;;;;;1.37;0.88;;;;;;;29.88;20.44;99257.25;4462103;31;34152;-62
2022/06/22 10:19:31;;;;;;;2.20;1.17;;;;;;;29.44;19.84;99257.91;4489857;31;33530;-63
2022/06/22 10:22:36;;;;;;;3.28;1.30;;;;;;;29.04;21.70;99263.53;4457691;31;33193;-62
2022/06/22 10:25:12;;;;;;;2.17;0.80;;;;;;;29.58;21.27;99266.69;4483183;31;34525;-63
2022/06/22 10:28:12;;;;;;;3.50;0.80;;;;;;;30.17;20.75;99267.06;4491902;31;35242;-63
2022/06/22 10:31:38;;;;;;;3.72;1.25;;;;;;;30.14;20.69;99269.50;4487808;31;34861;-61
2022/06/22 10:34:39;;;;;;;3.62;1.20;;;;;;;30.00;19.61;99257.16;4428181;32;34032;-63
2022/06/22 10:37:31;;;;;;;6.15;1.33;;;;;;;30.58;19.87;99264.88;4492318;31;33427;-66
2022/06/22 10:46:20;;;;;;;1.77;0.80;;;;;;;30.29;20.84;99269.75;4485087;31;31904;-63
2022/06/22 10:49:17;;;;;;;1.98;0.80;;;;;;;30.25;20.17;99265.81;4491960;31;33136;-63
2022/06/22 10:52:07;;;;;;;1.50;0.73;;;;;;;30.80;19.96;99267.66;4473839;31;33753;-64
2022/06/22 10:54:49;;;;;;;2.03;0.80;;;;;;;30.16;19.95;99270.06;4492867;31;34389;-66
2022/06/22 10:57:26;;;;;;;2.72;1.05;;;;;;;30.13;20.41;99270.59;4481067;31;32867;-63
2022/06/22 11:00:38;;;;;;;2.10;1.30;;;;;;;30.11;20.75;99270.00;4482155;31;34147;-63
2022/06/22 11:03:30;;;;;;;2.85;1.00;;;;;;;30.35;21.32;99273.41;4468218;31;33420;-65
2022/06/22 11:06:34;;;;;;;1.37;0.85;;;;;;;30.15;20.94;99272.00;4491184;31;33808;-66
2022/06/22 11:09:02;;;;;;;0.88;0.80;;;;;;;29.44;22.29;99270.88;4468760;31;31750;-62
2022/06/22 11:11:33;;;;;;;2.75;1.17;;;;;;;29.94;22.03;99261.75;4497239;31;32666;-64
2022/06/22 11:14:35;;;;;;;2.70;1.02;;;;;;;30.16;22.09;99268.16;4491987;31;34813;-63
2022/06/22 11:17:10;;;;;;;1.62;0.70;;;;;;;29.62;21.40;99259.59;4491964;31;33479;-64
2022/06/22 11:19:51;;;;;;;2.80;1.10;;;;;;;29.95;22.02;99257.91;4486113;31;33345;-64
2022/06/22 11:22:18;;;;;;;1.75;1.05;;;;;;;30.26;20.82;99261.13;4483059;31;32173;-62
2022/06/22 11:25:02;;;;;;;2.40;0.80;;;;;;;30.85;20.03;99261.34;4489791;31;34259;-61
2022/06/22 11:30:58;;;;;;;1.85;0.90;;;;;;;30.67;20.48;99258.91;4490414;31;33470;-64
2022/06/22 11:33:50;;;;;;;2.67;1.42;;;;;;;29.74;21.67;99265.03;4483824;31;33462;-62
2022/06/22 11:36:39;;;;;;;5.90;1.45;;;;;;;30.26;22.32;99256.44;4493670;31;34306;-62
2022/06/22 11:39:36;;;;;;;3.60;1.30;;;;;;;30.07;23.10;99261.37;4490272;31;33860;-63
2022/06/22 11:42:10;;;;;;;5.00;1.30;;;;;;;30.52;22.57;99235.53;4498218;31;34265;-62
2022/06/22 11:48:04;;;;;;;2.45;1.15;;;;;;;30.73;23.25;99221.97;4483572;31;32805;-64
2022/06/22 11:50:47;;;;;;;2.47;1.00;;;;;;;29.97;24.54;99224.56;4480146;31;32271;-64
2022/06/22 11:53:25;;;;;;;3.12;1.20;;;;;;;30.46;23.69;99235.72;4493439;31;32216;-65
2022/06/22 11:55:57;;;;;;;3.33;1.10;;;;;;;30.17;22.79;99213.78;4480390;31;32621;-64
2022/06/22 11:58:51;;;;;;;2.75;1.20;;;;;;;30.72;22.40;99207.28;4484950;31;35138;-63
2022/06/22 12:02:00;;;;;;;1.70;1.17;;;;;;;30.09;23.20;99206.78;4483977;31;33623;-64
2022/06/22 12:04:38;;;;;;;1.67;1.10;;;;;;;30.15;22.42;99225.09;4472972;31;32727;-64
2022/06/22 12:07:14;;;;;;;2.90;1.05;;;;;;;30.45;21.28;99228.53;4489121;31;35050;-66
2022/06/22 12:10:21;;;;;;;4.03;1.65;;;;;;;30.29;22.01;99216.47;4479837;31;32338;-63
2022/06/22 12:13:00;;;;;;;2.65;1.02;;;;;;;29.77;22.17;99216.81;4490135;31;34887;-64
2022/06/22 12:15:49;;;;;;;3.05;1.15;;;;;;;29.84;23.29;99220.22;4488889;31;34136;-63
2022/06/22 12:18:40;;;;;;;2.65;1.23;;;;;;;30.01;23.17;99215.50;4482235;31;32454;-64
2022/06/22 12:21:34;;;;;;;3.40;1.30;;;;;;;30.36;22.78;99209.66;4484906;31;35238;-64
2022/06/22 12:24:24;;;;;;;5.18;1.30;;;;;;;30.11;22.88;99212.03;4484686;31;33396;-63
2022/06/22 12:27:02;;;;;;;2.53;1.50;;;;;;;30.11;22.92;99206.53;4469477;31;33346;-63
2022/06/22 12:29:41;;;;;;;3.50;1.27;;;;;;;29.96;23.77;99212.69;4490551;31;34644;-66
2022/06/22 12:32:14;;;;;;;3.15;1.58;;;;;;;29.48;23.82;99214.97;4490434;31;32618;-63
2022/06/22 12:34:49;;;;;;;2.72;1.48;;;;;;;30.13;23.45;99210.69;4496159;31;34997;-64
2022/06/22 12:37:21;;;;;;;2.62;1.40;;;;;;;29.80;23.85;99199.75;4488047;31;33265;-63
2022/06/22 12:39:53;;;;;;;2.58;1.33;;;;;;;29.98;23.78;99202.22;4496357;31;32616;-63
2022/06/22 12:42:33;;;;;;;3.17;1.42;;;;;;;29.75;25.20;99200.50;4488977;31;32488;-64
2022/06/22 12:45:16;;;;;;;5.87;1.87;;;;;;;29.83;25.59;99196.50;4494060;31;32449;-63
2022/06/22 12:47:52;;;;;;;4.37;1.58;;;;;;;30.17;25.82;99187.00;4488854;31;34556;-63
2022/06/22 12:50:38;;;;;;;4.47;1.60;;;;;;;30.29;24.90;99180.56;4494175;31;35054;-62
2022/06/22 12:53:18;;;;;;;4.62;1.67;;;;;;;29.92;25.46;99173.75;4490999;31;33962;-63
2022/06/22 12:55:54;;;;;;;2.40;1.40;;;;;;;29.99;25.11;99183.75;4484979;31;33523;-66
2022/06/22 12:58:30;;;;;;;3.53;1.73;;;;;;;30.10;25.53;99182.78;4484086;31;33281;-63
2022/06/22 13:00:58;;;;;;;4.10;1.67;;;;;;;30.29;25.03;99183.34;4473247;31;34416;-62
2022/06/22 13:03:33;;;;;;;5.37;1.62;;;;;;;30.08;24.36;99171.16;4477112;31;32601;-66
2022/06/22 13:06:01;;;;;;;4.32;2.00;;;;;;;30.43;25.15;99179.06;4495887;31;33809;-64
2022/06/22 13:08:29;;;;;;;3.15;1.40;;;;;;;30.61;24.28;99187.03;4497528;31;32914;-62
2022/06/22 13:11:00;;;;;;;4.47;1.73;;;;;;;30.09;24.27;99173.69;4491772;31;33961;-63
2022/06/22 13:13:45;;;;;;;2.05;1.10;;;;;;;30.15;24.15;99169.06;4481369;31;33644;-64
2022/06/22 13:16:20;;;;;;;3.65;1.25;;;;;;;30.37;23.93;99164.41;4486501;31;33707;-60
2022/06/22 13:19:09;;;;;;;3.78;1.65;;;;;;;30.38;22.61;99168.81;4486976;31;33285;-61
2022/06/22 13:22:05;;;;;;;7.07;1.50;;;;;;;30.37;22.71;99158.06;4484837;31;32666;-62
2022/06/22 13:24:37;;;;;;;;;;;;;;;30.41;23.01;99161.97;4487598;31;32443;-62
2022/06/22 13:27:29;;;;;;;2.62;1.37;;;;;;;30.63;23.86;99151.72;4483046;31;34238;-63
2022/06/22 13:30:16;;;;;;;3.95;1.50;;;;;;;30.30;22.82;99152.72;4493397;31;35268;-67
2022/06/22 13:33:05;;;;;;;6.18;1.73;;;;;;;30.30;23.12;99160.97;4486258;31;32549;-62
2022/06/22 13:35:58;;;;;;;3.80;1.25;;;;;;;30.69;22.30;99163.66;4476532;31;33916;-62
2022/06/22 13:38:50;;;;;;;3.00;1.25;;;;;;;30.63;21.35;99171.03;4488740;31;33385;-63
2022/06/22 13:41:34;;;;;;;3.80;1.42;;;;;;;30.29;23.38;99166.78;4489535;31;33073;-63
2022/06/22 13:44:20;;;;;;;5.07;2.28;;;;;;;30.08;23.49;99177.53;4481326;31;33876;-64
2022/06/22 13:47:41;;;;;;;4.68;1.62;;;;;;;30.33;22.41;99165.16;4475588;31;32962;-64
2022/06/22 13:50:21;;;;;;;2.72;1.45;;;;;;;30.34;22.05;99169.63;4416048;32;32514;-63
2022/06/22 13:52:54;;;;;;;2.53;1.40;;;;;;;30.36;22.00;99168.25;4492666;31;33535;-62
2022/06/22 13:55:54;;;;;;;4.18;1.40;;;;;;;30.15;22.38;99158.03;4493212;31;33653;-63
2022/06/22 13:58:28;;;;;;;3.35;1.42;;;;;;;30.50;22.74;99160.41;4482774;31;33484;-64
2022/06/22 14:01:06;;;;;;;2.95;1.35;;;;;;;30.56;23.13;99147.47;4493560;31;34761;-62
2022/06/22 14:03:43;;;;;;;2.35;1.30;;;;;;;29.94;22.81;99146.72;4483541;31;34290;-62
2022/06/22 14:06:23;;;;;;;4.15;1.50;;;;;;;30.11;22.59;99141.16;4489827;31;33654;-63
2022/06/22 14:09:12;;;;;;;6.25;1.77;;;;;;;29.90;23.38;99147.50;4483131;31;34981;-62
2022/06/22 14:12:01;;;;;;;3.10;1.15;;;;;;;29.63;23.20;99139.09;4486356;31;33614;-62
2022/06/22 14:14:51;;;;;;;3.90;1.65;;;;;;;29.71;22.80;99135.94;4489113;31;31751;-63
2022/06/22 14:17:26;;;;;;;3.83;1.70;;;;;;;29.96;22.06;99135.44;4496432;31;35053;-62
2022/06/22 14:20:08;;;;;;;3.90;1.65;;;;;;;30.01;23.02;99142.94;4482238;31;32756;-65
2022/06/22 14:22:39;;;;;;;2.65;1.20;;;;;;;29.54;23.79;99141.44;4470941;31;32305;-62
2022/06/22 14:25:19;;;;;;;6.25;2.10;;;;;;;29.64;24.32;99144.38;4492906;31;31613;-65
2022/06/22 14:28:30;;;;;;;4.70;1.58;;;;;;;29.68;23.86;99134.50;4492002;31;34783;-66
2022/06/22 14:31:04;;;;;;;3.12;1.30;;;;;;;29.37;24.09;99143.38;4479045;31;32346;-64
2022/06/22 14:34:00;;;;;;;3.62;1.50;;;;;;;29.39;24.11;99142.03;4490494;31;33426;-67
2022/06/22 14:36:53;;;;;;;3.28;1.30;;;;;;;29.68;23.63;99140.03;4482670;31;33379;-66
2022/06/22 14:39:38;;;;;;;4.47;1.80;;;;;;;29.64;24.16;99124.25;4492969;31;34765;-66
2022/06/22 14:42:12;;;;;;;2.62;1.58;;;;;;;30.05;23.69;99127.53;4487959;31;33711;-66
2022/06/22 14:44:52;;;;;;;4.78;1.73;;;;;;;30.08;23.74;99124.25;4489231;31;33304;-64
2022/06/22 14:47:43;;;;;;;6.28;1.60;;;;;;;29.80;24.71;99130.81;4487077;31;32298;-63
2022/06/22 14:50:20;;;;;;;4.35;1.58;;;;;;;30.26;24.17;99125.88;4491392;31;32885;-62
2022/06/22 14:53:14;;;;;;;3.28;1.40;;;;;;;30.26;23.13;99120.38;4480559;31;32372;-63
2022/06/22 14:55:47;;;;;;;3.87;1.75;;;;;;;30.62;23.54;99114.12;4487826;31;34760;-66
2022/06/22 14:58:20;;;;;;;5.05;1.62;;;;;;;30.78;23.20;99115.13;4489076;31;33163;-64
2022/06/22 15:00:59;;;;;;;3.45;1.42;;;;;;;30.07;23.37;99103.28;4486563;31;32627;-64
2022/06/22 15:03:36;;;;;;;3.00;1.42;;;;;;;29.71;24.38;99105.59;4482709;31;33830;-66
2022/06/22 15:06:15;;;;;;;3.15;1.70;;;;;;;30.00;23.75;99103.47;4487561;31;32601;-63
2022/06/22 15:08:52;;;;;;;3.70;1.62;;;;;;;29.77;23.80;99095.47;4485071;31;33304;-66
2022/06/22 15:14:35;;;;;;;3.78;1.50;;;;;;;29.82;23.99;99085.31;4483334;31;32546;-67
2022/06/22 15:17:11;;;;;;;2.78;1.40;;;;;;;30.16;23.86;99074.97;4495895;31;33343;-66
2022/06/22 15:20:03;;;;;;;3.67;1.60;;;;;;;29.94;23.99;99074.97;4474274;31;31738;-66
2022/06/22 15:22:40;;;;;;;3.67;1.33;;;;;;;29.48;24.42;99074.38;4485222;31;32918;-67
2022/06/22 15:25:41;;;;;;;2.75;1.42;;;;;;;29.66;24.29;99069.66;4480439;31;33871;-65
2022/06/22 15:28:33;;;;;;;4.62;1.40;;;;;;;29.78;24.89;99061.28;4481184;31;34524;-63
2022/06/22 15:31:27;;;;;;;3.33;1.60;;;;;;;30.18;24.60;99053.47;4476883;31;34706;-63
2022/06/22 15:34:31;;;;;;;6.53;1.60;;;;;;;30.35;24.65;99056.16;4475976;31;33389;-66
2022/06/22 15:36:59;;;;;;;2.90;1.30;;;;;;;30.23;25.20;99060.16;4488934;31;33812;-66
2022/06/22 15:39:32;;;;;;;3.17;1.58;;;;;;;29.91;24.59;99064.47;4491198;31;33740;-64
2022/06/22 15:42:23;;;;;;;4.28;1.75;;;;;;;30.32;24.46;99053.91;4482964;31;34251;-63
2022/06/22 15:45:01;;;;;;;4.97;1.60;;;;;;;30.20;25.32;99042.19;4476253;31;33315;-65
2022/06/22 15:47:39;;;;;;;8.68;1.83;;;;;;;30.43;25.20;99052.09;4494160;31;32743;-63
2022/06/22 15:50:30;;;;;;;7.32;1.70;;;;;;;30.30;24.73;99053.34;4484197;31;32267;-62
2022/06/22 15:53:21;;;;;;;3.75;1.58;;;;;;;30.31;25.11;99043.97;4488171;31;34259;-65
2022/06/22 15:55:56;;;;;;;5.65;2.55;;;;;;;30.16;25.16;99043.78;4482643;31;34667;-62
2022/06/22 15:58:29;;;;;;;3.17;1.60;;;;;;;30.42;25.62;99035.78;4485030;31;32843;-64
2022/06/22 16:01:10;;;;;;;2.25;1.40;;;;;;;30.26;25.15;99041.16;4485353;31;32690;-63
2022/06/22 16:03:44;;;;;;;4.07;1.60;;;;;;;30.20;25.37;99035.84;4489637;31;32113;-63
2022/06/22 16:07:02;;;;;;;3.53;1.73;;;;;;;30.57;25.07;99030.41;4489414;31;32631;-64
2022/06/22 16:09:29;;;;;;;;;;;;;;;30.87;24.89;99032.63;4494978;31;35371;-63
2022/06/22 16:14:57;;;;;;;4.55;1.62;;;;;;;30.30;24.96;99042.28;4492457;31;33367;-62
2022/06/22 16:17:33;;;;;;;2.90;1.67;;;;;;;30.61;24.78;99042.59;4496902;31;32701;-63
2022/06/22 16:20:14;;;;;;;5.22;2.08;;;;;;;30.30;25.00;99030.41;4486822;31;33908;-63
2022/06/22 16:22:45;;;;;;;4.18;1.60;;;;;;;29.94;25.95;99038.28;4485357;31;34551;-64
2022/06/22 16:25:19;;;;;;;3.40;1.62;;;;;;;30.40;25.44;99034.13;4486655;31;33152;-62
2022/06/22 16:27:58;;;;;;;;;;;;;;;30.12;25.41;99023.31;4490680;31;33747;-63
2022/06/22 16:30:47;;;;;;;3.12;1.50;;;;;;;29.98;26.15;99025.63;4485070;31;35399;-64
2022/06/22 16:33:44;;;;;;;3.45;1.60;;;;;;;30.11;26.19;99022.50;4490584;31;35010;-62
2022/06/22 16:36:52;;;;;;;3.35;1.77;;;;;;;30.07;26.47;99015.81;4483859;31;33107;-62
2022/06/22 16:39:47;;;;;;;4.35;2.03;;;;;;;29.73;26.78;99009.66;4475783;31;34011;-64
2022/06/22 16:42:48;;;;;;;4.05;1.60;;;;;;;30.23;26.61;99007.72;4494201;31;33873;-64
2022/06/22 16:45:40;;;;;;;4.80;1.90;;;;;;;30.28;26.81;99011.38;4487133;31;34891;-62
2022/06/22 16:48:15;;;;;;;4.32;3.03;;;;;;;30.02;25.88;98998.41;4475618;31;31965;-64
2022/06/22 16:51:07;;;;;;;4.72;1.95;;;;;;;30.25;26.06;99005.56;4489734;31;33968;-61
2022/06/22 16:53:49;;;;;;;4.70;2.20;;;;;;;30.18;26.56;99003.81;4491002;31;34043;-64
2022/06/22 16:56:21;;;;;;;4.97;1.95;;;;;;;30.09;27.85;99002.59;4492278;31;32702;-63
2022/06/22 16:58:51;;;;;;;4.62;1.83;;;;;;;29.92;28.71;98999.09;4489765;31;33334;-62
2022/06/22 17:01:35;;;;;;;5.40;1.87;;;;;;;29.89;28.53;99003.22;4484031;31;35352;-63
2022/06/22 17:04:17;;;;;;;4.28;2.20;;;;;;;29.69;28.98;99002.97;4489079;31;33264;-63
2022/06/22 17:06:58;;;;;;;6.93;2.42;;;;;;;29.43;29.84;99015.56;4488796;31;33105;-63
2022/06/22 17:10:06;;;;;;;4.72;2.40;;;;;;;28.96;30.30;99010.50;4479491;32;31258;-64
2022/06/22 17:12:39;;;;;;;3.50;1.80;;;;;;;28.90;30.11;99009.56;4470633;32;33929;-64
2022/06/22 17:15:29;;;;;;;4.40;2.10;;;;;;;28.92;30.17;99015.63;4494950;31;33836;-63
2022/06/22 17:18:03;;;;;;;4.00;2.10;;;;;;;28.95;30.27;99020.66;4487973;31;32355;-66
2022/06/22 17:20:42;;;;;;;6.40;2.37;;;;;;;29.15;29.93;99022.06;4490330;31;33463;-67
2022/06/22 17:23:16;;;;;;;7.72;2.12;;;;;;;29.13;30.10;99018.75;4495062;31;33437;-65
2022/06/22 17:26:06;;;;;;;6.35;2.25;;;;;;;29.14;30.22;99018.47;4484088;31;34269;-65
2022/06/22 17:28:54;;;;;;;9.25;2.85;;;;;;;29.15;30.05;99025.69;4482331;31;32639;-63
2022/06/22 17:31:32;;;;;;;4.85;1.98;;;;;;;29.16;30.15;99021.00;4493344;31;32600;-64
2022/06/22 17:34:21;;;;;;;9.13;2.42;;;;;;;29.27;29.95;99020.03;4486064;31;33489;-65
2022/06/22 17:37:15;;;;;;;9.35;2.28;;;;;;;29.16;30.34;99016.31;4489202;31;32279;-63
2022/06/22 17:39:45;;;;;;;6.25;2.22;;;;;;;29.05;30.72;99017.25;4482424;31;34611;-64
2022/06/22 17:42:25;;;;;;;6.25;1.92;;;;;;;29.09;30.52;99012.09;4483834;31;31676;-64
2022/06/22 17:45:12;;;;;;;6.53;2.17;;;;;;;29.02;30.67;99013.09;4481659;31;34872;-66
2022/06/22 17:47:47;;;;;;;4.90;2.42;;;;;;;29.10;30.53;99019.25;4494919;31;33687;-63
2022/06/22 17:50:26;;;;;;;6.37;3.25;;;;;;;28.96;30.97;99022.34;4496284;31;32301;-62
2022/06/22 17:52:56;;;;;;;9.68;2.25;;;;;;;28.93;30.98;99017.31;4494817;31;33178;-66
2022/06/22 17:55:27;;;;;;;4.28;1.90;;;;;;;28.99;30.90;99021.00;4488391;31;34607;-64
2022/06/22 17:57:58;;;;;;;7.68;2.20;;;;;;;28.79;31.24;99022.31;4484774;31;33703;-63
2022/06/22 18:00:28;;;;;;;5.12;2.12;;;;;;;29.04;30.79;99023.00;4493445;31;33906;-65
2022/06/22 18:03:21;;;;;;;10.80;2.42;;;;;;;29.02;30.76;99028.75;4501415;31;31968;-66
2022/06/22 18:06:12;;;;;;;4.93;2.40;;;;;;;28.99;31.09;99035.59;4488630;31;34995;-63
2022/06/22 18:08:43;;;;;;;4.45;2.03;;;;;;;28.93;31.15;99033.84;4491701;31;35580;-62
2022/06/22 18:11:13;;;;;;;7.28;2.15;;;;;;;28.70;31.41;99045.88;4494087;31;33512;-62
2022/06/22 18:13:44;;;;;;;6.35;2.50;;;;;;;28.89;31.20;99046.47;4495651;31;34053;-65
2022/06/22 18:16:13;;;;;;;7.65;2.55;;;;;;;28.76;31.36;99055.91;4475560;31;32282;-63
2022/06/22 18:18:44;;;;;;;5.03;1.98;;;;;;;28.83;31.31;99052.97;4498578;31;34098;-63
2022/06/22 18:21:29;;;;;;;5.95;2.17;;;;;;;28.89;31.29;99048.34;4489613;31;32517;-64
2022/06/22 18:24:03;;;;;;;5.28;2.17;;;;;;;29.01;31.28;99041.69;4488156;31;34266;-63
2022/06/22 18:26:32;;;;;;;6.07;2.70;;;;;;;28.90;31.75;99045.38;4490558;31;32352;-65
2022/06/22 18:29:35;;;;;;;6.45;2.10;;;;;;;28.84;31.79;99040.03;4488646;31;33676;-66
2022/06/22 18:32:12;;;;;;;5.07;2.15;;;;;;;28.92;31.71;99045.09;4467142;31;34606;-64
2022/06/22 18:34:53;;;;;;;6.40;2.42;;;;;;;28.63;32.19;99053.44;4495338;31;33059;-66
2022/06/22 18:37:47;;;;;;;5.90;2.17;;;;;;;28.76;32.34;99053.16;4495293;31;34297;-66
2022/06/22 18:43:22;;;;;;;6.05;2.42;;;;;;;28.91;31.90;99043.44;4475062;31;33935;-66
2022/06/22 18:45:58;;;;;;;7.30;2.60;;;;;;;28.92;31.97;99039.59;4481145;31;33779;-65
2022/06/22 18:48:40;;;;;;;7.18;2.95;;;;;;;28.93;32.07;99039.38;4482282;31;34003;-65
2022/06/22 18:51:24;;;;;;;8.13;3.47;;;;;;;28.93;32.12;99033.84;4481506;31;32395;-64
2022/06/22 18:54:11;;;;;;;7.87;3.40;;;;;;;28.96;31.98;99033.34;4469528;31;34531;-63
2022/06/22 18:56:56;;;;;;;8.13;3.70;;;;;;;28.96;31.99;99035.28;4484170;31;31961;-64
2022/06/22 18:59:26;;;;;;;9.00;3.65;;;;;;;28.93;32.08;99030.28;4485892;31;33968;-63
2022/06/22 19:02:00;;;;;;;8.68;3.35;;;;;;;28.89;32.52;99043.72;4496781;31;35046;-64
2022/06/22 19:04:30;;;;;;;11.95;4.28;;;;;;;28.81;32.63;99041.37;4486225;31;33960;-66
2022/06/22 19:07:09;;;;;;;7.50;3.70;;;;;;;28.82;32.66;99042.19;4491850;31;31791;-64
2022/06/22 19:09:59;;;;;;;7.85;2.85;;;;;;;28.82;32.78;99045.78;4492395;31;34972;-65
2022/06/22 19:12:39;;;;;;;7.25;2.97;;;;;;;28.83;32.83;99044.72;4492955;31;33807;-63
2022/06/22 19:15:17;;;;;;;8.40;3.42;;;;;;;28.70;33.07;99048.63;4484487;31;33265;-63
2022/06/22 19:17:59;;;;;;;9.75;3.28;;;;;;;28.64;33.19;99057.06;4484506;31;33457;-63
2022/06/22 19:20:32;;;;;;;7.97;3.70;;;;;;;28.63;33.31;99058.13;4486729;31;33933;-63
2022/06/22 19:23:16;;;;;;;11.82;4.03;;;;;;;28.60;33.35;99064.94;4482012;31;34437;-64
2022/06/22 19:26:04;;;;;;;8.15;4.00;;;;;;;28.63;32.99;99064.47;4488489;31;32991;-64
2022/06/22 19:29:03;;;;;;;8.43;3.80;;;;;;;28.55;33.04;99068.47;4475473;31;33027;-66
2022/06/22 19:31:49;;;;;;;11.45;3.83;;;;;;;28.40;33.13;99079.19;4483804;31;32634;-63
2022/06/22 19:34:33;;;;;;;8.43;3.47;;;;;;;28.47;32.98;99071.59;4489740;31;33788;-66
2022/06/22 19:37:52;;;;;;;10.05;4.35;;;;;;;28.47;33.16;99076.28;4483065;31;33917;-65
2022/06/22 19:40:40;;;;;;;7.40;4.05;;;;;;;28.49;33.30;99083.22;4480896;32;31978;-65
2022/06/22 19:43:28;;;;;;;9.60;3.92;;;;;;;28.47;33.04;99085.38;4481340;31;35749;-63
2022/06/22 19:46:18;;;;;;;6.80;3.30;;;;;;;28.49;33.27;99085.97;4494768;31;34059;-65
2022/06/22 19:49:12;;;;;;;9.15;3.65;;;;;;;28.45;33.42;99093.06;4496247;31;33501;-69
2022/06/22 19:51:51;;;;;;;9.98;3.70;;;;;;;28.40;33.50;99090.19;4496887;31;32191;-64
2022/06/22 19:54:41;;;;;;;7.30;3.37;;;;;;;28.39;33.31;99085.75;4483304;31;33977;-64
2022/06/22 19:57:09;;;;;;;8.75;3.20;;;;;;;28.38;33.19;99084.09;4495128;31;33910;-66
2022/06/22 19:59:39;;;;;;;6.87;2.60;;;;;;;28.30;33.23;99087.22;4493987;31;33759;-67
2022/06/22 20:02:23;;;;;;;8.65;3.40;;;;;;;28.29;33.17;99086.41;4494206;31;33085;-63
2022/06/22 20:05:02;;;;;;;5.57;2.65;;;;;;;28.21;33.42;99078.53;4478344;31;32394;-67
2022/06/22 20:07:40;;;;;;;7.40;2.83;;;;;;;28.32;32.98;99082.31;4483866;31;32838;-66
2022/06/22 20:10:14;;;;;;;5.75;2.83;;;;;;;28.26;33.47;99083.31;4490640;31;33471;-66
2022/06/22 20:12:47;;;;;;;5.50;2.47;;;;;;;28.29;33.49;99085.56;4490420;31;33815;-65
2022/06/22 20:15:27;;;;;;;6.18;2.40;;;;;;;28.28;33.52;99095.75;4496133;31;32383;-66
2022/06/22 20:17:59;;;;;;;5.50;2.53;;;;;;;28.38;33.48;99083.22;4497361;31;35220;-66
2022/06/22 20:20:47;;;;;;;7.62;2.72;;;;;;;28.31;33.57;99081.50;4493757;31;31802;-66
2022/06/22 20:23:31;;;;;;;5.53;2.33;;;;;;;28.29;33.45;99083.66;4492377;31;32988;-65
2022/06/22 20:26:18;;;;;;;6.62;2.58;;;;;;;28.20;33.47;99082.38;4505206;31;34690;-65
2022/06/22 20:28:52;;;;;;;5.85;2.75;;;;;;;28.17;33.55;99082.03;4496021;31;33983;-64
2022/06/22 20:31:32;;;;;;;5.40;2.45;;;;;;;28.04;33.79;99081.22;4493652;31;32224;-65
2022/06/22 20:34:28;;;;;;;6.15;2.28;;;;;;;28.12;33.40;99080.00;4499366;31;32257;-66
2022/06/22 20:37:09;;;;;;;8.52;2.83;;;;;;;28.13;33.38;99078.94;4495984;31;32659;-65
2022/06/22 20:39:38;;;;;;;13.80;2.53;;;;;;;28.07;33.41;99071.66;4485984;31;34254;-65
2022/06/22 20:42:21;;;;;;;4.60;2.25;;;;;;;28.05;33.37;99069.13;4482748;31;32156;-66
2022/06/22 20:45:07;;;;;;;5.95;2.40;;;;;;;28.13;33.04;99072.59;4489706;31;33123;-65
2022/06/22 20:48:05;;;;;;;5.95;1.90;;;;;;;28.03;32.96;99062.25;4484065;31;32748;-65
2022/06/22 20:50:39;;;;;;;4.72;1.95;;;;;;;28.04;32.93;99063.91;4496735;31;34118;-63